createdAt,value
2018-09-29T00:01:23.490Z,4.80
2018-09-29T00:03:51.439Z,4.80
2018-09-29T00:06:19.418Z,4.80
2018-09-29T00:08:47.304Z,4.70
2018-09-29T00:11:15.290Z,4.70
2018-09-29T00:13:43.303Z,4.70
2018-09-29T00:16:11.263Z,4.70
2018-09-29T00:18:39.230Z,4.70
2018-09-29T00:21:07.144Z,4.70
2018-09-29T00:23:35.155Z,4.60
2018-09-29T00:26:03.019Z,4.60
2018-09-29T00:28:30.939Z,4.60
2018-09-29T00:30:58.864Z,4.60
2018-09-29T00:33:26.860Z,4.60
2018-09-29T00:35:54.949Z,4.50
2018-09-29T00:38:22.919Z,4.50
2018-09-29T00:40:50.932Z,4.50
2018-09-29T00:43:19.054Z,4.50
2018-09-29T00:45:47.071Z,4.50
2018-09-29T00:48:15.067Z,4.50
2018-09-29T00:50:43.048Z,4.40
2018-09-29T00:53:11.097Z,4.40
2018-09-29T00:55:39.188Z,4.40
2018-09-29T00:58:07.139Z,4.30
2018-09-29T01:00:35.287Z,4.30
2018-09-29T01:03:03.308Z,4.30
2018-09-29T01:05:31.295Z,4.30
2018-09-29T01:07:59.263Z,4.20
2018-09-29T01:10:27.296Z,4.20
2018-09-29T01:12:55.305Z,4.30
2018-09-29T01:15:23.351Z,4.20
2018-09-29T01:17:51.361Z,4.20
2018-09-29T01:20:19.330Z,4.20
2018-09-29T01:22:47.363Z,4.20
2018-09-29T01:25:15.514Z,4.20
2018-09-29T01:27:43.498Z,4.20
2018-09-29T01:30:11.490Z,4.20
2018-09-29T01:32:39.386Z,4.30
2018-09-29T01:35:07.316Z,4.30
2018-09-29T01:37:35.395Z,4.30
2018-09-29T01:40:03.383Z,4.30
2018-09-29T01:42:31.367Z,4.30
2018-09-29T01:44:59.596Z,4.30
2018-09-29T01:47:27.602Z,4.40
2018-09-29T01:49:55.750Z,4.40
2018-09-29T01:52:23.714Z,4.40
2018-09-29T01:54:51.625Z,4.50
2018-09-29T01:57:19.647Z,4.40
2018-09-29T01:59:47.601Z,4.40
2018-09-29T02:02:15.687Z,4.30
2018-09-29T02:04:43.655Z,4.20
2018-09-29T02:07:11.596Z,4.20
2018-09-29T02:09:39.618Z,4.20
2018-09-29T02:12:07.583Z,4.10
2018-09-29T02:14:35.574Z,4.10
2018-09-29T02:17:03.588Z,4.10
2018-09-29T02:19:31.628Z,4.10
2018-09-29T02:21:59.550Z,4.10
2018-09-29T02:24:27.465Z,4.10
2018-09-29T02:26:55.433Z,4.10
2018-09-29T02:29:23.598Z,4.10
2018-09-29T02:31:51.655Z,4.10
2018-09-29T02:34:19.821Z,4.10
2018-09-29T02:36:47.778Z,4.10
2018-09-29T02:39:15.848Z,4.10
2018-09-29T02:41:43.922Z,4.10
2018-09-29T02:44:12.043Z,4.10
2018-09-29T02:46:39.954Z,4.10
2018-09-29T02:49:07.997Z,4.10
2018-09-29T02:51:36.017Z,4.10
2018-09-29T02:54:04.010Z,4.10
2018-09-29T02:56:32.006Z,4.10
2018-09-29T02:58:59.921Z,4.10
2018-09-29T03:01:27.809Z,4.10
2018-09-29T03:03:55.792Z,4.10
2018-09-29T03:06:23.752Z,4.10
2018-09-29T03:08:51.676Z,4.10
2018-09-29T03:11:19.748Z,4.20
2018-09-29T03:13:47.751Z,4.20
2018-09-29T03:16:15.726Z,4.20
2018-09-29T03:18:43.646Z,4.20
2018-09-29T03:21:11.620Z,4.20
2018-09-29T03:23:39.640Z,4.20
2018-09-29T03:26:07.580Z,4.20
2018-09-29T03:28:35.659Z,4.20
2018-09-29T03:31:03.635Z,4.30
2018-09-29T03:33:31.669Z,4.30
2018-09-29T03:35:59.650Z,4.30
2018-09-29T03:38:27.625Z,4.30
2018-09-29T03:40:55.659Z,4.30
2018-09-29T03:43:23.612Z,4.30
2018-09-29T03:45:51.625Z,4.30
2018-09-29T03:48:19.634Z,4.30
2018-09-29T03:50:47.658Z,4.40
2018-09-29T03:53:15.706Z,4.40
2018-09-29T03:55:43.683Z,4.40
2018-09-29T03:58:11.663Z,4.40
2018-09-29T04:00:39.598Z,4.40
2018-09-29T04:03:07.558Z,4.40
2018-09-29T04:05:35.542Z,4.40
2018-09-29T04:08:03.554Z,4.40
2018-09-29T04:10:31.653Z,4.40
2018-09-29T04:12:59.610Z,4.40
2018-09-29T04:15:27.556Z,4.40
2018-09-29T04:17:55.525Z,4.40
2018-09-29T04:20:23.503Z,4.40
2018-09-29T04:22:51.446Z,4.30
2018-09-29T04:25:19.434Z,4.40
2018-09-29T04:27:47.546Z,4.30
2018-09-29T04:30:15.460Z,4.30
2018-09-29T04:32:43.486Z,4.30
2018-09-29T04:35:11.509Z,4.30
2018-09-29T04:37:45.006Z,4.30
2018-09-29T04:40:13.039Z,4.30
2018-09-29T04:42:41.015Z,4.30
2018-09-29T04:45:09.062Z,4.30
2018-09-29T04:47:37.094Z,4.30
2018-09-29T04:50:05.061Z,4.40
2018-09-29T04:52:33.120Z,4.40
2018-09-29T04:55:01.090Z,4.40
2018-09-29T04:57:29.147Z,4.40
2018-09-29T04:59:57.052Z,4.40
2018-09-29T05:02:24.968Z,4.40
2018-09-29T05:04:52.967Z,4.40
2018-09-29T05:07:21.020Z,4.40
2018-09-29T05:09:48.974Z,4.40
2018-09-29T05:12:16.898Z,4.40
2018-09-29T05:14:44.762Z,4.50
2018-09-29T05:17:12.654Z,4.50
2018-09-29T05:19:40.619Z,4.50
2018-09-29T05:22:08.607Z,4.50
2018-09-29T05:24:36.562Z,4.50
2018-09-29T05:27:04.513Z,4.50
2018-09-29T05:29:32.535Z,4.50
2018-09-29T05:32:00.444Z,4.60
2018-09-29T05:34:28.343Z,4.60
2018-09-29T05:36:56.357Z,4.60
2018-09-29T05:39:24.388Z,4.60
2018-09-29T05:41:52.440Z,4.70
2018-09-29T05:44:20.443Z,4.60
2018-09-29T05:46:48.441Z,4.70
2018-09-29T05:49:16.350Z,4.70
2018-09-29T05:51:44.249Z,4.70
2018-09-29T05:54:12.214Z,4.80
2018-09-29T05:56:40.206Z,4.90
2018-09-29T05:59:08.229Z,4.90
2018-09-29T06:01:36.262Z,5.00
2018-09-29T06:04:04.360Z,5.10
2018-09-29T06:06:32.671Z,5.30
2018-09-29T06:09:01.991Z,5.70
2018-09-29T06:11:29.857Z,6.00
2018-09-29T06:13:58.139Z,6.20
2018-09-29T06:16:26.158Z,6.60
2018-09-29T06:18:54.261Z,7.10
2018-09-29T06:21:22.282Z,7.70
2018-09-29T06:23:50.370Z,8.10
2018-09-29T06:26:18.430Z,8.10
2018-09-29T06:28:46.324Z,7.90
2018-09-29T06:31:14.360Z,7.70
2018-09-29T06:33:42.376Z,7.70
2018-09-29T06:36:10.318Z,7.60
2018-09-29T06:38:38.412Z,7.80
2018-09-29T06:41:06.398Z,7.90
2018-09-29T06:43:34.651Z,8.30
2018-09-29T06:46:02.774Z,8.90
2018-09-29T06:48:30.672Z,9.30
2018-09-29T06:50:58.652Z,9.90
2018-09-29T06:53:26.618Z,9.70
2018-09-29T06:55:54.651Z,10.10
2018-09-29T06:58:22.734Z,10.50
2018-09-29T07:00:50.866Z,10.50
2018-09-29T07:03:18.916Z,10.10
2018-09-29T07:05:47.029Z,9.50
2018-09-29T07:08:15.002Z,9.40
2018-09-29T07:10:43.007Z,9.60
2018-09-29T07:13:11.147Z,9.50
2018-09-29T07:15:39.178Z,9.10
2018-09-29T07:18:07.203Z,8.80
2018-09-29T07:20:35.246Z,8.70
2018-09-29T07:23:03.218Z,9.10
2018-09-29T07:25:31.284Z,9.40
2018-09-29T07:27:59.235Z,9.50
2018-09-29T07:30:27.111Z,9.50
2018-09-29T07:32:55.186Z,9.70
2018-09-29T07:35:23.519Z,9.80
2018-09-29T07:37:51.488Z,9.50
2018-09-29T07:40:19.610Z,9.30
2018-09-29T07:42:47.547Z,9.10
2018-09-29T07:45:15.620Z,8.90
2018-09-29T07:47:43.704Z,8.80
2018-09-29T07:50:11.815Z,8.70
2018-09-29T07:52:40.225Z,8.70
2018-09-29T07:55:08.429Z,8.70
2018-09-29T07:57:36.443Z,8.60
2018-09-29T08:00:04.712Z,8.70
2018-09-29T08:02:32.793Z,8.80
2018-09-29T08:05:00.948Z,8.70
2018-09-29T08:07:28.912Z,8.70
2018-09-29T08:09:56.957Z,8.70
2018-09-29T08:12:25.137Z,8.80
2018-09-29T08:14:53.320Z,8.80
2018-09-29T08:17:21.311Z,8.90
2018-09-29T08:19:49.458Z,8.90
2018-09-29T08:22:17.435Z,8.80
2018-09-29T08:24:45.407Z,8.90
2018-09-29T08:27:13.503Z,9.00
2018-09-29T08:29:41.650Z,8.90
2018-09-29T08:32:09.728Z,9.00
2018-09-29T08:34:37.799Z,9.20
2018-09-29T08:37:05.990Z,9.30
2018-09-29T08:39:34.087Z,9.40
2018-09-29T08:42:02.355Z,9.40
2018-09-29T08:44:30.462Z,9.40
2018-09-29T08:46:58.605Z,9.40
2018-09-29T08:49:26.797Z,9.30
2018-09-29T08:51:54.849Z,9.30
2018-09-29T08:54:22.996Z,9.40
2018-09-29T08:56:51.148Z,9.50
2018-09-29T08:59:19.155Z,9.60
2018-09-29T09:01:47.157Z,9.60
2018-09-29T09:04:15.171Z,9.60
2018-09-29T09:06:43.150Z,9.60
2018-09-29T09:09:11.618Z,9.60
2018-09-29T09:11:39.693Z,9.60
2018-09-29T09:14:07.758Z,9.70
2018-09-29T09:16:35.675Z,9.70
2018-09-29T09:19:03.810Z,9.70
2018-09-29T09:21:32.496Z,9.90
2018-09-29T09:24:00.371Z,9.90
2018-09-29T09:26:28.626Z,10.00
2018-09-29T09:28:56.741Z,10.10
2018-09-29T09:31:25.004Z,10.10
2018-09-29T09:33:53.023Z,10.20
2018-09-29T09:36:21.087Z,10.40
2018-09-29T09:38:49.045Z,10.60
2018-09-29T09:41:17.055Z,10.80
2018-09-29T09:43:45.173Z,11.00
2018-09-29T09:46:13.260Z,10.90
2018-09-29T09:48:41.261Z,10.80
2018-09-29T09:51:09.217Z,11.10
2018-09-29T09:53:37.345Z,11.20
2018-09-29T09:56:05.394Z,11.40
2018-09-29T09:58:33.887Z,11.40
2018-09-29T10:01:07.456Z,11.40
2018-09-29T10:03:35.622Z,11.30
2018-09-29T10:06:03.683Z,11.40
2018-09-29T10:08:31.843Z,11.40
2018-09-29T10:10:59.836Z,11.50
2018-09-29T10:13:27.828Z,11.60
2018-09-29T10:15:55.781Z,11.80
2018-09-29T10:18:23.899Z,12.00
2018-09-29T10:20:51.890Z,12.00
2018-09-29T10:23:20.680Z,11.90
2018-09-29T10:25:48.812Z,11.90
2018-09-29T10:28:17.007Z,11.80
2018-09-29T10:30:44.968Z,11.90
2018-09-29T10:33:12.943Z,12.00
2018-09-29T10:35:40.837Z,12.00
2018-09-29T10:38:08.948Z,12.10
2018-09-29T10:40:36.975Z,12.20
2018-09-29T10:43:04.918Z,12.40
2018-09-29T10:45:32.922Z,12.50
2018-09-29T10:48:00.838Z,12.50
2018-09-29T10:50:28.711Z,12.60
2018-09-29T10:52:56.676Z,12.40
2018-09-29T10:55:24.697Z,12.20
2018-09-29T10:57:52.836Z,12.20
2018-09-29T11:00:20.781Z,12.40
2018-09-29T11:02:48.835Z,12.40
2018-09-29T11:05:16.837Z,12.40
2018-09-29T11:07:44.954Z,12.50
2018-09-29T11:10:12.924Z,12.40
2018-09-29T11:12:40.847Z,12.20
2018-09-29T11:15:09.076Z,12.20
2018-09-29T11:17:37.273Z,12.30
2018-09-29T11:20:05.410Z,12.40
2018-09-29T11:22:33.621Z,12.40
2018-09-29T11:25:01.663Z,12.30
2018-09-29T11:27:29.636Z,12.30
2018-09-29T11:29:57.534Z,12.30
2018-09-29T11:32:25.460Z,12.30
2018-09-29T11:34:53.390Z,12.40
2018-09-29T11:37:21.317Z,12.40
2018-09-29T11:39:49.338Z,12.30
2018-09-29T11:42:17.261Z,12.30
2018-09-29T11:44:45.275Z,12.20
2018-09-29T11:47:13.229Z,12.20
2018-09-29T11:49:41.237Z,12.30
2018-09-29T11:52:09.341Z,12.40
2018-09-29T11:54:37.679Z,12.60
2018-09-29T11:57:05.906Z,12.60
2018-09-29T11:59:33.973Z,12.60
2018-09-29T12:02:02.372Z,12.60
2018-09-29T12:04:30.342Z,12.50
2018-09-29T12:06:58.441Z,12.50
2018-09-29T12:09:26.522Z,12.40
2018-09-29T12:11:54.548Z,12.30
2018-09-29T12:14:22.491Z,12.40
2018-09-29T12:16:50.380Z,12.40
2018-09-29T12:19:18.438Z,12.50
2018-09-29T12:21:46.398Z,12.50
2018-09-29T12:24:14.385Z,12.50
2018-09-29T12:26:42.379Z,12.50
2018-09-29T12:29:10.290Z,12.50
2018-09-29T12:31:38.283Z,12.50
2018-09-29T12:34:06.491Z,12.20
2018-09-29T12:36:34.419Z,12.20
2018-09-29T12:39:02.757Z,12.10
2018-09-29T12:41:30.783Z,12.10
2018-09-29T12:43:58.699Z,12.20
2018-09-29T12:46:26.614Z,12.30
2018-09-29T12:48:54.508Z,12.10
2018-09-29T12:51:22.487Z,12.00
2018-09-29T12:53:50.502Z,11.90
2018-09-29T12:56:18.631Z,11.80
2018-09-29T12:58:46.842Z,11.70
2018-09-29T13:01:14.950Z,11.60
2018-09-29T13:03:42.851Z,11.50
2018-09-29T13:06:10.814Z,11.60
2018-09-29T13:08:38.774Z,11.50
2018-09-29T13:11:06.850Z,11.60
2018-09-29T13:13:34.880Z,11.60
2018-09-29T13:16:02.890Z,11.50
2018-09-29T13:18:30.814Z,11.50
2018-09-29T13:20:58.759Z,11.50
2018-09-29T13:23:26.784Z,11.50
2018-09-29T13:25:54.703Z,11.50
2018-09-29T13:28:22.644Z,11.50
2018-09-29T13:30:50.712Z,11.50
2018-09-29T13:33:18.735Z,11.60
2018-09-29T13:35:46.779Z,11.50
2018-09-29T13:38:15.006Z,11.50
2018-09-29T13:40:43.153Z,11.50
2018-09-29T13:43:11.081Z,11.50
2018-09-29T13:45:39.078Z,11.40
2018-09-29T13:48:07.393Z,11.30
2018-09-29T13:50:35.599Z,11.30
2018-09-29T13:53:03.618Z,11.30
2018-09-29T13:55:31.594Z,11.30
2018-09-29T13:57:59.699Z,11.30
2018-09-29T14:00:27.747Z,11.40
2018-09-29T14:02:55.754Z,11.30
2018-09-29T14:05:23.877Z,11.20
2018-09-29T14:07:51.873Z,11.30
2018-09-29T14:10:19.818Z,11.30
2018-09-29T14:12:47.890Z,11.20
2018-09-29T14:15:15.810Z,11.10
2018-09-29T14:17:43.874Z,11.10
2018-09-29T14:20:11.930Z,11.10
2018-09-29T14:22:39.938Z,11.10
2018-09-29T14:25:08.019Z,11.10
2018-09-29T14:27:36.154Z,11.10
2018-09-29T14:30:04.324Z,11.10
2018-09-29T14:32:32.452Z,11.10
2018-09-29T14:35:00.524Z,11.00
2018-09-29T14:37:28.595Z,11.00
2018-09-29T14:39:56.526Z,10.90
2018-09-29T14:42:24.759Z,10.90
2018-09-29T14:44:52.709Z,10.80
2018-09-29T14:47:20.647Z,10.80
2018-09-29T14:49:48.647Z,10.90
2018-09-29T14:52:16.741Z,10.80
2018-09-29T14:54:44.751Z,10.80
2018-09-29T14:57:12.666Z,10.90
2018-09-29T14:59:40.563Z,10.80
2018-09-29T15:02:08.583Z,10.80
2018-09-29T15:04:36.854Z,10.80
2018-09-29T15:07:04.831Z,10.80
2018-09-29T15:09:32.933Z,10.80
2018-09-29T15:12:00.859Z,10.70
2018-09-29T15:14:28.829Z,10.70
2018-09-29T15:16:56.792Z,10.70
2018-09-29T15:19:24.818Z,10.70
2018-09-29T15:21:52.823Z,10.70
2018-09-29T15:24:20.928Z,10.70
2018-09-29T15:26:48.807Z,10.70
2018-09-29T15:29:16.812Z,10.60
2018-09-29T15:31:44.790Z,10.70
2018-09-29T15:34:12.808Z,10.60
2018-09-29T15:36:40.760Z,10.60
2018-09-29T15:39:10.390Z,10.70
2018-09-29T15:41:38.446Z,10.60
2018-09-29T15:44:06.826Z,10.60
2018-09-29T15:46:34.947Z,10.60
2018-09-29T15:49:03.395Z,10.60
2018-09-29T15:51:31.347Z,10.60
2018-09-29T15:53:59.295Z,10.60
2018-09-29T15:56:27.606Z,10.60
2018-09-29T15:58:55.509Z,10.50
2018-09-29T16:01:23.482Z,10.50
2018-09-29T16:03:51.458Z,10.50
2018-09-29T16:06:20.379Z,10.50
2018-09-29T16:08:48.464Z,10.50
2018-09-29T16:11:16.632Z,10.50
2018-09-29T16:13:44.860Z,10.50
2018-09-29T16:16:13.319Z,10.50
2018-09-29T16:18:41.234Z,10.50
2018-09-29T16:21:09.126Z,10.50
2018-09-29T16:23:37.139Z,10.40
2018-09-29T16:26:05.311Z,10.40
2018-09-29T16:28:33.303Z,10.40
2018-09-29T16:31:01.279Z,10.40
2018-09-29T16:33:29.282Z,10.40
2018-09-29T16:35:57.321Z,10.40
2018-09-29T16:38:25.581Z,10.40
2018-09-29T16:40:53.514Z,10.40
2018-09-29T16:43:21.545Z,10.50
2018-09-29T16:45:49.490Z,10.50
2018-09-29T16:48:17.534Z,10.50
2018-09-29T16:50:45.442Z,10.50
2018-09-29T16:53:13.550Z,10.50
2018-09-29T16:55:41.675Z,10.50
2018-09-29T16:58:09.615Z,10.50
2018-09-29T17:00:37.518Z,10.40
2018-09-29T17:03:05.529Z,10.50
2018-09-29T17:05:33.510Z,10.40
2018-09-29T17:08:01.489Z,10.50
2018-09-29T17:10:29.591Z,10.50
2018-09-29T17:12:57.574Z,10.50
2018-09-29T17:15:25.512Z,10.60
2018-09-29T17:17:53.396Z,10.60
2018-09-29T17:20:21.373Z,10.60
2018-09-29T17:22:49.374Z,10.60
2018-09-29T17:25:17.363Z,10.60
2018-09-29T17:27:45.262Z,10.60
2018-09-29T17:30:13.202Z,10.60
2018-09-29T17:32:41.082Z,10.60
2018-09-29T17:35:09.031Z,10.60
2018-09-29T17:37:36.975Z,10.60
2018-09-29T17:40:05.146Z,10.60
2018-09-29T17:42:33.100Z,10.60
2018-09-29T17:45:01.217Z,10.60
2018-09-29T17:47:29.211Z,10.60
2018-09-29T17:49:57.204Z,10.70
2018-09-29T17:52:25.134Z,10.70
2018-09-29T17:54:53.030Z,10.70
2018-09-29T17:57:20.906Z,10.70
2018-09-29T17:59:48.813Z,10.70
2018-09-29T18:02:16.851Z,10.70
2018-09-29T18:04:44.819Z,10.70
2018-09-29T18:07:12.747Z,10.80
2018-09-29T18:09:40.726Z,10.80
2018-09-29T18:12:08.669Z,10.80
2018-09-29T18:14:36.566Z,10.80
2018-09-29T18:17:04.583Z,10.80
2018-09-29T18:19:32.569Z,10.80
2018-09-29T18:22:00.626Z,10.80
2018-09-29T18:24:28.663Z,10.90
2018-09-29T18:26:56.951Z,10.80
2018-09-29T18:29:24.908Z,10.80
2018-09-29T18:31:52.969Z,10.90
2018-09-29T18:34:20.958Z,10.80
2018-09-29T18:36:49.145Z,10.90
2018-09-29T18:39:17.069Z,10.90
2018-09-29T18:41:45.194Z,10.80
2018-09-29T18:44:13.211Z,10.90
2018-09-29T18:46:41.202Z,10.80
2018-09-29T18:49:09.511Z,10.90
2018-09-29T18:51:37.468Z,10.90
2018-09-29T18:54:05.414Z,10.90
2018-09-29T18:56:33.673Z,10.90
2018-09-29T18:59:01.555Z,10.90
2018-09-29T19:01:29.720Z,10.90
2018-09-29T19:03:57.959Z,10.90
2018-09-29T19:06:25.910Z,10.90
2018-09-29T19:08:53.921Z,10.80
2018-09-29T19:11:21.930Z,10.80
2018-09-29T19:13:50.055Z,10.80
2018-09-29T19:16:17.973Z,10.80
2018-09-29T19:18:46.082Z,10.70
2018-09-29T19:21:14.259Z,10.80
2018-09-29T19:23:42.284Z,10.80
2018-09-29T19:26:10.343Z,10.80
2018-09-29T19:28:38.282Z,10.80
2018-09-29T19:31:06.806Z,10.80
2018-09-29T19:33:34.769Z,10.80
2018-09-29T19:36:02.908Z,10.80
2018-09-29T19:38:31.317Z,10.80
2018-09-29T19:40:59.230Z,10.80
2018-09-29T19:43:27.328Z,10.80
2018-09-29T19:45:55.420Z,10.80
2018-09-29T19:48:23.477Z,10.80
2018-09-29T19:50:51.494Z,10.80
2018-09-29T19:53:19.551Z,10.80
2018-09-29T19:55:47.603Z,10.70
2018-09-29T19:58:15.658Z,10.70
2018-09-29T20:00:43.614Z,10.80
2018-09-29T20:03:12.188Z,10.80
2018-09-29T20:05:40.220Z,10.80
2018-09-29T20:08:08.145Z,10.80
2018-09-29T20:10:36.466Z,10.80
2018-09-29T20:13:04.488Z,10.80
2018-09-29T20:15:32.611Z,10.80
2018-09-29T20:18:00.560Z,10.80
2018-09-29T20:20:28.458Z,10.80
2018-09-29T20:22:56.384Z,10.80
2018-09-29T20:25:24.308Z,10.70
2018-09-29T20:27:52.274Z,10.80
2018-09-29T20:30:20.326Z,10.80
2018-09-29T20:32:48.432Z,10.70
2018-09-29T20:35:16.446Z,10.70
2018-09-29T20:37:44.449Z,10.70
2018-09-29T20:40:12.558Z,10.70
2018-09-29T20:42:40.703Z,10.70
2018-09-29T20:45:08.765Z,10.70
2018-09-29T20:47:37.991Z,10.70
2018-09-29T20:50:06.064Z,10.70
2018-09-29T20:52:34.113Z,10.70
2018-09-29T20:55:02.106Z,10.60
2018-09-29T20:57:30.178Z,10.60
2018-09-29T20:59:58.196Z,10.60
2018-09-29T21:02:26.457Z,10.60
2018-09-29T21:04:54.346Z,10.60
2018-09-29T21:07:22.229Z,10.50
2018-09-29T21:09:50.448Z,10.50
2018-09-29T21:12:18.421Z,10.50
2018-09-29T21:14:46.532Z,10.40
2018-09-29T21:17:14.598Z,10.40
2018-09-29T21:19:42.490Z,10.40
2018-09-29T21:22:10.500Z,10.40
2018-09-29T21:24:38.409Z,10.30
2018-09-29T21:27:06.506Z,10.30
2018-09-29T21:29:34.494Z,10.40
2018-09-29T21:32:02.434Z,10.30
2018-09-29T21:34:30.413Z,10.30
2018-09-29T21:36:58.394Z,10.30
2018-09-29T21:39:26.609Z,10.30
2018-09-29T21:41:54.561Z,10.30
2018-09-29T21:44:22.412Z,10.30
2018-09-29T21:46:50.390Z,10.20
2018-09-29T21:49:18.588Z,10.20
2018-09-29T21:51:46.554Z,10.20
2018-09-29T21:54:14.511Z,10.20
2018-09-29T21:56:42.515Z,10.20
2018-09-29T21:59:10.431Z,10.30
2018-09-29T22:01:38.397Z,10.30
2018-09-29T22:04:06.466Z,10.20
2018-09-29T22:06:34.440Z,10.20
2018-09-29T22:09:02.513Z,10.20
2018-09-29T22:11:30.383Z,10.20
2018-09-29T22:13:58.241Z,10.20
2018-09-29T22:16:26.209Z,10.20
2018-09-29T22:18:54.320Z,10.30
2018-09-29T22:21:22.432Z,10.30
2018-09-29T22:23:50.330Z,10.20
2018-09-29T22:26:18.227Z,10.20
2018-09-29T22:28:46.234Z,10.20
2018-09-29T22:31:14.237Z,10.30
2018-09-29T22:33:42.183Z,10.30
2018-09-29T22:36:10.254Z,10.30
2018-09-29T22:38:38.166Z,10.20
2018-09-29T22:41:06.386Z,10.20
2018-09-29T22:43:34.422Z,10.30
2018-09-29T22:46:02.321Z,10.30
2018-09-29T22:48:30.246Z,10.30
2018-09-29T22:50:58.231Z,10.40
2018-09-29T22:53:26.161Z,10.40
2018-09-29T22:55:54.094Z,10.40
2018-09-29T22:58:22.174Z,10.40
2018-09-29T23:00:50.228Z,10.40
2018-09-29T23:03:18.229Z,10.40
2018-09-29T23:05:46.198Z,10.40
2018-09-29T23:08:14.662Z,10.40
2018-09-29T23:10:42.637Z,10.40
2018-09-29T23:13:17.484Z,10.50
2018-09-29T23:15:45.442Z,10.50
2018-09-29T23:18:13.424Z,10.60
2018-09-29T23:20:41.392Z,10.60
2018-09-29T23:23:09.384Z,10.60
2018-09-29T23:25:37.321Z,10.60
2018-09-29T23:28:05.397Z,10.70
2018-09-29T23:30:33.310Z,10.70
2018-09-29T23:33:01.292Z,10.70
2018-09-29T23:35:29.268Z,10.70
2018-09-29T23:37:57.293Z,10.70
2018-09-29T23:40:25.268Z,10.70
2018-09-29T23:42:53.216Z,10.70
2018-09-29T23:45:21.147Z,10.70
2018-09-29T23:47:49.198Z,10.80
2018-09-29T23:50:17.289Z,10.80
2018-09-29T23:52:45.371Z,10.80
2018-09-29T23:55:13.630Z,10.80
2018-09-29T23:57:41.617Z,10.80
